createdAt,value
2023-04-11T00:00:18.567Z,4.81
2023-04-11T00:03:06.350Z,4.85
2023-04-11T00:05:34.326Z,4.84
2023-04-11T00:08:02.044Z,4.84
2023-04-11T00:10:29.993Z,4.86
2023-04-11T00:12:57.830Z,4.85
2023-04-11T00:15:25.699Z,4.82
2023-04-11T00:17:53.760Z,4.81
2023-04-11T00:20:22.157Z,4.80
2023-04-11T00:22:49.975Z,4.77
2023-04-11T00:25:17.881Z,4.76
2023-04-11T00:27:45.969Z,4.78
2023-04-11T00:30:13.890Z,4.81
2023-04-11T00:32:41.864Z,4.82
2023-04-11T00:35:09.595Z,4.84
2023-04-11T00:37:37.438Z,4.87
2023-04-11T00:40:05.662Z,4.87
2023-04-11T00:42:33.763Z,4.91
2023-04-11T00:45:01.713Z,4.92
2023-04-11T00:47:32.167Z,4.93
2023-04-11T00:50:00.317Z,4.92
2023-04-11T00:52:28.245Z,4.90
2023-04-11T00:54:56.112Z,4.86
2023-04-11T00:57:24.190Z,4.85
2023-04-11T00:59:52.060Z,4.86
2023-04-11T01:02:20.061Z,4.87
2023-04-11T01:04:48.013Z,4.86
2023-04-11T01:07:16.174Z,4.83
2023-04-11T01:09:44.291Z,4.83
2023-04-11T01:12:12.475Z,4.82
2023-04-11T01:14:43.739Z,4.83
2023-04-11T01:17:11.612Z,4.84
2023-04-11T01:19:39.316Z,4.80
2023-04-11T01:22:07.978Z,4.78
2023-04-11T01:24:35.965Z,4.78
2023-04-11T01:27:03.739Z,4.79
2023-04-11T01:29:31.963Z,4.83
2023-04-11T01:32:02.291Z,4.82
2023-04-11T01:34:31.027Z,4.78
2023-04-11T01:36:59.052Z,4.74
2023-04-11T01:39:26.841Z,4.71
2023-04-11T01:41:55.539Z,4.68
2023-04-11T01:44:24.352Z,4.66
2023-04-11T01:46:52.266Z,4.66
2023-04-11T01:49:19.994Z,4.66
2023-04-11T01:51:48.263Z,4.65
2023-04-11T01:54:15.962Z,4.64
2023-04-11T01:56:43.816Z,4.61
2023-04-11T01:59:11.569Z,4.60
2023-04-11T02:01:42.587Z,4.57
2023-04-11T02:04:10.678Z,4.53
2023-04-11T02:06:42.146Z,4.53
2023-04-11T02:09:09.886Z,4.52
2023-04-11T02:11:37.980Z,4.53
2023-04-11T02:14:05.759Z,4.54
2023-04-11T02:16:33.464Z,4.56
2023-04-11T02:19:01.549Z,4.56
2023-04-11T02:21:32.106Z,4.55
2023-04-11T02:24:00.717Z,4.54
2023-04-11T02:26:28.793Z,4.54
2023-04-11T02:28:57.317Z,4.50
2023-04-11T02:31:25.228Z,4.47
2023-04-11T02:33:53.339Z,4.44
2023-04-11T02:36:21.148Z,4.42
2023-04-11T02:38:48.851Z,4.41
2023-04-11T02:41:16.805Z,4.40
2023-04-11T02:43:44.956Z,4.38
2023-04-11T02:46:13.453Z,4.36
2023-04-11T02:48:46.729Z,4.37
2023-04-11T02:51:14.937Z,4.37
2023-04-11T02:53:47.978Z,4.39
2023-04-11T02:56:18.770Z,4.43
2023-04-11T02:58:48.281Z,4.46
2023-04-11T03:01:17.559Z,4.46
2023-04-11T03:03:45.738Z,4.47
2023-04-11T03:06:13.924Z,4.47
2023-04-11T03:08:42.036Z,4.48
2023-04-11T03:11:13.015Z,4.49
2023-04-11T03:13:41.907Z,4.48
2023-04-11T03:16:10.002Z,4.47
2023-04-11T03:18:37.915Z,4.45
2023-04-11T03:21:07.603Z,4.46
2023-04-11T03:23:35.803Z,4.44
2023-04-11T03:26:04.729Z,4.43
2023-04-11T03:28:33.682Z,4.41
2023-04-11T03:31:01.722Z,4.42
2023-04-11T03:33:29.718Z,4.41
2023-04-11T03:35:57.663Z,4.40
2023-04-11T03:38:25.720Z,4.37
2023-04-11T03:40:53.765Z,4.35
2023-04-11T03:43:26.577Z,4.36
2023-04-11T03:45:58.025Z,4.37
2023-04-11T03:48:43.991Z,4.35
2023-04-11T03:51:11.791Z,4.36
2023-04-11T03:53:45.073Z,4.36
2023-04-11T03:56:24.235Z,4.35
2023-04-11T03:58:53.475Z,4.31
2023-04-11T04:01:24.631Z,4.30
2023-04-11T04:03:59.228Z,4.27
2023-04-11T04:06:38.293Z,4.27
2023-04-11T04:09:09.906Z,4.24
2023-04-11T04:11:48.050Z,4.20
2023-04-11T04:14:17.392Z,4.15
2023-04-11T04:16:45.393Z,4.10
2023-04-11T04:19:13.937Z,4.08
2023-04-11T04:21:45.033Z,4.08
2023-04-11T04:24:13.241Z,4.08
2023-04-11T04:26:55.879Z,4.09
2023-04-11T04:29:36.501Z,4.10
2023-04-11T04:32:05.569Z,4.13
2023-04-11T04:34:42.393Z,4.13
2023-04-11T04:37:13.291Z,4.13
2023-04-11T04:39:41.813Z,4.15
2023-04-11T04:42:10.141Z,4.16
2023-04-11T04:44:40.284Z,4.19
2023-04-11T04:47:15.744Z,4.23
2023-04-11T04:49:44.195Z,4.27
2023-04-11T04:52:12.790Z,4.29
2023-04-11T04:54:40.548Z,4.33
2023-04-11T04:57:09.116Z,4.38
2023-04-11T04:59:36.930Z,4.43
2023-04-11T05:02:10.441Z,4.50
2023-04-11T05:04:38.450Z,4.55
2023-04-11T05:07:06.307Z,4.58
2023-04-11T05:09:35.128Z,4.60
2023-04-11T05:12:09.718Z,4.64
2023-04-11T05:14:38.603Z,4.70
2023-04-11T05:17:06.556Z,4.76
2023-04-11T05:19:35.432Z,4.82
2023-04-11T05:22:04.290Z,4.89
2023-04-11T05:24:33.023Z,4.95
2023-04-11T05:27:02.028Z,5.03
2023-04-11T05:29:30.028Z,5.11
2023-04-11T05:32:01.828Z,5.19
2023-04-11T05:34:32.829Z,5.25
2023-04-11T05:37:00.921Z,5.30
2023-04-11T05:39:28.737Z,5.32
2023-04-11T05:41:57.307Z,5.42
2023-04-11T05:44:25.143Z,5.55
2023-04-11T05:46:52.898Z,5.65
2023-04-11T05:49:20.864Z,5.75
2023-04-11T05:51:48.817Z,5.86
2023-04-11T05:54:30.706Z,5.98
2023-04-11T05:56:58.577Z,6.13
2023-04-11T05:59:28.337Z,6.24
2023-04-11T06:01:56.757Z,6.38
2023-04-11T06:04:25.070Z,6.57
2023-04-11T06:06:53.665Z,6.70
2023-04-11T06:09:21.522Z,6.76
2023-04-11T06:11:49.485Z,6.84
2023-04-11T06:14:17.533Z,7.00
2023-04-11T06:16:53.018Z,7.22
2023-04-11T06:19:20.849Z,7.48
2023-04-11T06:21:48.639Z,7.64
2023-04-11T06:24:16.398Z,7.77
2023-04-11T06:26:44.423Z,7.98
2023-04-11T06:29:12.165Z,8.12
2023-04-11T06:31:40.329Z,8.26
2023-04-11T06:34:08.328Z,8.36
2023-04-11T06:36:36.341Z,8.47
2023-04-11T06:39:04.306Z,8.67
2023-04-11T06:41:32.403Z,8.85
2023-04-11T06:44:00.363Z,9.05
2023-04-11T06:46:28.416Z,9.27
2023-04-11T06:48:58.473Z,9.45
2023-04-11T06:51:31.931Z,9.64
2023-04-11T06:54:08.603Z,9.74
2023-04-11T06:57:05.704Z,9.84
2023-04-11T06:59:45.741Z,9.97
2023-04-11T07:02:14.354Z,10.08
2023-04-11T07:05:03.185Z,10.18
2023-04-11T07:07:31.322Z,10.27
2023-04-11T07:09:59.295Z,10.38
2023-04-11T07:12:30.466Z,10.50
2023-04-11T07:14:58.647Z,10.63
2023-04-11T07:17:26.944Z,10.78
2023-04-11T07:20:03.251Z,10.86
2023-04-11T07:22:33.852Z,10.97
2023-04-11T07:25:09.774Z,11.09
2023-04-11T07:27:38.409Z,11.28
2023-04-11T07:30:15.380Z,11.50
2023-04-11T07:32:50.914Z,11.69
2023-04-11T07:35:32.283Z,11.86
2023-04-11T07:38:03.670Z,12.02
2023-04-11T07:40:41.498Z,12.24
2023-04-11T07:43:15.036Z,12.48
2023-04-11T07:45:48.694Z,12.73
2023-04-11T07:48:16.709Z,12.96
2023-04-11T07:50:44.582Z,13.11
2023-04-11T07:53:18.147Z,13.25
2023-04-11T07:56:18.019Z,13.34
2023-04-11T07:58:57.864Z,13.31
2023-04-11T08:01:48.589Z,13.35
2023-04-11T08:04:19.306Z,13.51
2023-04-11T08:06:52.293Z,13.71
2023-04-11T08:09:42.909Z,13.88
2023-04-11T08:12:13.930Z,14.03
2023-04-11T08:15:09.479Z,14.21
2023-04-11T08:17:47.146Z,14.37
2023-04-11T08:20:27.270Z,14.51
2023-04-11T08:22:57.657Z,14.66
2023-04-11T08:25:25.699Z,14.75
2023-04-11T08:27:53.708Z,14.76
2023-04-11T08:30:24.248Z,14.75
2023-04-11T08:32:52.231Z,14.68
2023-04-11T08:35:20.363Z,14.60
2023-04-11T08:37:48.291Z,14.47
2023-04-11T08:40:19.039Z,14.40
2023-04-11T08:42:50.191Z,14.26
2023-04-11T08:45:20.582Z,14.17
2023-04-11T08:47:54.608Z,14.09
2023-04-11T08:50:27.794Z,14.01
2023-04-11T08:53:00.793Z,14.00
2023-04-11T08:55:31.797Z,14.01
2023-04-11T08:58:19.975Z,14.05
2023-04-11T09:00:48.043Z,14.06
2023-04-11T09:03:16.708Z,14.13
2023-04-11T09:05:45.585Z,14.23
2023-04-11T09:08:14.591Z,14.36
2023-04-11T09:10:45.608Z,14.49
2023-04-11T09:13:24.537Z,14.66
2023-04-11T09:16:12.775Z,14.91
2023-04-11T09:19:01.903Z,15.20
2023-04-11T09:21:30.830Z,15.35
2023-04-11T09:24:15.476Z,15.45
2023-04-11T09:26:49.019Z,15.64
2023-04-11T09:29:46.244Z,15.80
2023-04-11T09:32:34.514Z,16.00
2023-04-11T09:35:09.073Z,16.12
2023-04-11T09:37:58.162Z,16.40
2023-04-11T09:40:27.360Z,16.64
2023-04-11T09:43:01.817Z,16.88
2023-04-11T09:45:32.162Z,17.05
2023-04-11T09:48:14.670Z,17.35
2023-04-11T09:50:49.338Z,17.39
2023-04-11T09:53:17.677Z,17.37
2023-04-11T09:55:48.206Z,17.30
2023-04-11T09:58:31.257Z,17.31
2023-04-11T10:01:25.299Z,17.50
2023-04-11T10:03:53.753Z,17.57
2023-04-11T10:06:27.973Z,17.58
2023-04-11T10:09:09.363Z,17.57
2023-04-11T10:12:03.150Z,17.48
2023-04-11T10:14:42.730Z,17.41
2023-04-11T10:17:17.673Z,17.46
2023-04-11T10:19:58.212Z,17.49
2023-04-11T10:23:01.842Z,17.61
2023-04-11T10:26:09.869Z,17.75
2023-04-11T10:28:57.937Z,17.96
2023-04-11T10:32:02.506Z,18.40
2023-04-11T10:34:57.044Z,18.79
2023-04-11T10:37:48.338Z,19.43
2023-04-11T10:40:16.330Z,20.26
2023-04-11T10:43:05.218Z,20.84
2023-04-11T10:45:47.641Z,21.12
2023-04-11T10:48:41.907Z,21.70
2023-04-11T10:51:51.361Z,21.98
2023-04-11T10:54:47.416Z,22.31
2023-04-11T10:57:56.399Z,22.57
2023-04-11T11:00:48.048Z,22.87
2023-04-11T11:03:31.031Z,22.46
2023-04-11T11:06:07.030Z,22.04
2023-04-11T11:08:36.181Z,21.87
2023-04-11T11:11:08.708Z,21.89
2023-04-11T11:13:55.785Z,21.94
2023-04-11T11:16:45.133Z,22.33
2023-04-11T11:19:36.864Z,22.52
2023-04-11T11:22:14.453Z,22.63
2023-04-11T11:24:45.680Z,22.15
2023-04-11T11:27:43.126Z,21.97
2023-04-11T11:30:31.790Z,21.91
2023-04-11T11:36:43.594Z,24.67
2023-04-11T11:39:12.291Z,25.21
2023-04-11T11:42:00.494Z,24.33
2023-04-11T11:44:48.808Z,24.01
2023-04-11T11:47:29.635Z,23.61
2023-04-11T11:50:24.577Z,23.01
2023-04-11T11:52:58.092Z,22.60
2023-04-11T11:55:35.397Z,23.15
2023-04-11T11:58:15.624Z,24.28
2023-04-11T12:00:55.261Z,24.51
2023-04-11T12:03:43.727Z,26.11
2023-04-11T12:06:17.620Z,26.16
2023-04-11T12:09:23.045Z,24.99
2023-04-11T12:11:54.727Z,23.68
2023-04-11T12:14:23.187Z,23.17
2023-04-11T12:17:04.824Z,24.02
2023-04-11T12:19:46.548Z,24.63
2023-04-11T12:22:35.158Z,24.45
2023-04-11T12:25:26.686Z,23.61
2023-04-11T12:27:57.475Z,23.13
2023-04-11T12:30:30.018Z,22.79
2023-04-11T12:33:03.241Z,23.31
2023-04-11T12:35:41.798Z,24.67
2023-04-11T12:38:41.320Z,26.23
2023-04-11T12:41:31.010Z,25.57
2023-04-11T12:44:25.284Z,25.22
2023-04-11T12:47:03.025Z,25.99
2023-04-11T12:49:31.398Z,25.68
2023-04-11T12:52:08.764Z,24.38
2023-04-11T12:55:07.070Z,23.03
2023-04-11T12:57:44.805Z,23.00
2023-04-11T13:00:25.550Z,25.03
2023-04-11T13:03:17.304Z,26.85
2023-04-11T13:06:20.095Z,28.24
2023-04-11T13:09:11.692Z,29.04
2023-04-11T13:12:21.518Z,29.69
2023-04-11T13:14:49.373Z,29.98
2023-04-11T13:17:17.270Z,30.19
2023-04-11T13:19:53.594Z,30.07
2023-04-11T13:22:45.719Z,28.88
2023-04-11T13:25:13.927Z,26.79
2023-04-11T13:27:59.673Z,25.20
2023-04-11T13:30:28.339Z,24.17
2023-04-11T13:33:17.021Z,24.94
2023-04-11T13:35:47.864Z,25.72
2023-04-11T13:38:30.873Z,26.33
2023-04-11T13:40:59.337Z,26.68
2023-04-11T13:43:30.149Z,27.11
2023-04-11T13:46:00.893Z,27.91
2023-04-11T13:48:29.034Z,28.76
2023-04-11T13:50:59.256Z,29.43
2023-04-11T13:53:31.034Z,30.08
2023-04-11T13:56:02.105Z,30.18
2023-04-11T13:58:36.397Z,29.40
2023-04-11T14:01:04.492Z,28.36
2023-04-11T14:03:38.294Z,27.42
2023-04-11T14:06:06.646Z,26.40
2023-04-11T14:08:48.590Z,25.81
2023-04-11T14:11:43.584Z,25.88
2023-04-11T14:17:55.301Z,26.07
2023-04-11T14:20:34.339Z,26.00
2023-04-11T14:23:31.105Z,25.85
2023-04-11T14:26:30.545Z,25.29
2023-04-11T14:29:23.177Z,24.15
2023-04-11T14:32:21.262Z,23.17
2023-04-11T14:35:02.365Z,22.35
2023-04-11T14:37:52.678Z,21.76
2023-04-11T14:40:41.246Z,21.12
2023-04-11T14:43:49.555Z,20.53
2023-04-11T14:46:27.340Z,19.92
2023-04-11T14:49:35.375Z,19.32
2023-04-11T14:52:18.247Z,18.82
2023-04-11T14:55:26.351Z,18.36
2023-04-11T14:58:01.943Z,17.95
2023-04-11T15:00:40.010Z,17.58
2023-04-11T15:03:28.452Z,17.32
2023-04-11T15:06:12.790Z,17.10
2023-04-11T15:09:02.523Z,17.08
2023-04-11T15:11:46.677Z,17.11
2023-04-11T15:14:35.502Z,17.13
2023-04-11T15:17:27.524Z,17.17
2023-04-11T15:19:55.865Z,17.19
2023-04-11T15:22:47.170Z,17.12
2023-04-11T15:25:27.806Z,16.95
2023-04-11T15:27:55.737Z,16.76
2023-04-11T15:30:23.608Z,16.58
2023-04-11T15:33:05.292Z,16.34
2023-04-11T15:35:55.106Z,16.09
2023-04-11T15:38:42.324Z,15.99
2023-04-11T15:41:15.457Z,15.87
2023-04-11T15:43:55.265Z,15.75
2023-04-11T15:46:36.932Z,15.61
2023-04-11T15:49:25.514Z,15.47
2023-04-11T15:52:31.573Z,15.29
2023-04-11T15:55:14.846Z,15.16
2023-04-11T15:58:02.981Z,14.90
2023-04-11T16:00:51.512Z,14.65
2023-04-11T16:03:32.682Z,14.37
2023-04-11T16:06:01.402Z,14.15
2023-04-11T16:08:49.595Z,13.93
2023-04-11T16:11:40.094Z,13.69
2023-04-11T16:14:28.476Z,13.48
2023-04-11T16:17:19.268Z,13.25
2023-04-11T16:19:49.650Z,13.11
2023-04-11T16:22:26.650Z,12.98
2023-04-11T16:24:57.118Z,12.78
2023-04-11T16:27:35.201Z,12.60
2023-04-11T16:30:04.389Z,12.39
2023-04-11T16:32:32.659Z,12.17
2023-04-11T16:35:07.178Z,12.04
2023-04-11T16:37:42.762Z,11.90
2023-04-11T16:40:13.199Z,11.76
2023-04-11T16:43:11.694Z,11.64
2023-04-11T16:45:40.160Z,11.57
2023-04-11T16:48:13.326Z,11.49
2023-04-11T16:50:41.736Z,11.36
2023-04-11T16:53:09.955Z,11.23
2023-04-11T16:55:38.120Z,11.14
2023-04-11T16:58:06.280Z,11.03
2023-04-11T17:00:34.220Z,10.98
2023-04-11T17:03:06.530Z,10.89
2023-04-11T17:05:36.280Z,10.74
2023-04-11T17:08:04.046Z,10.58
2023-04-11T17:10:31.972Z,10.42
2023-04-11T17:12:59.797Z,10.23
2023-04-11T17:15:28.011Z,10.08
2023-04-11T17:17:56.285Z,9.97
2023-04-11T17:20:24.760Z,9.87
2023-04-11T17:22:54.181Z,9.79
2023-04-11T17:25:22.134Z,9.74
2023-04-11T17:27:50.240Z,9.65
2023-04-11T17:30:18.507Z,9.56
2023-04-11T17:32:47.797Z,9.52
2023-04-11T17:35:16.699Z,9.49
2023-04-11T17:37:45.252Z,9.46
2023-04-11T17:40:13.469Z,9.43
2023-04-11T17:46:07.117Z,9.34
2023-04-11T17:52:15.442Z,9.20
2023-04-11T17:54:55.754Z,9.08
2023-04-11T17:57:25.421Z,9.01
2023-04-11T18:00:25.139Z,8.87
2023-04-11T18:03:17.076Z,8.65
2023-04-11T18:06:25.250Z,8.46
2023-04-11T18:08:53.246Z,8.37
2023-04-11T18:11:21.478Z,8.26
2023-04-11T18:13:50.530Z,8.18
2023-04-11T18:16:19.077Z,8.14
2023-04-11T18:18:48.476Z,8.10
2023-04-11T18:21:17.048Z,8.09
2023-04-11T18:23:45.068Z,8.04
2023-04-11T18:26:12.911Z,7.98
2023-04-11T18:28:41.083Z,7.94
2023-04-11T18:31:09.795Z,7.90
2023-04-11T18:33:59.083Z,7.84
2023-04-11T18:36:26.409Z,7.73
2023-04-11T18:38:58.214Z,7.64
2023-04-11T18:41:26.868Z,7.56
2023-04-11T18:43:55.341Z,7.49
2023-04-11T18:46:23.404Z,7.40
2023-04-11T18:48:51.373Z,7.32
2023-04-11T18:51:20.174Z,7.27
2023-04-11T18:53:48.185Z,7.20
2023-04-11T18:56:16.432Z,7.19
2023-04-11T18:58:46.693Z,7.20
2023-04-11T19:01:17.842Z,7.20
2023-04-11T20:25:32.961Z,7.48
2023-04-11T20:27:59.929Z,7.48
2023-04-11T20:30:26.596Z,7.48
2023-04-11T20:32:54.111Z,7.40
2023-04-11T20:35:20.806Z,7.39
2023-04-11T20:37:47.218Z,7.38
2023-04-11T20:40:14.524Z,7.38
2023-04-11T20:42:43.841Z,7.38
2023-04-11T20:45:19.372Z,7.39
2023-04-11T20:47:45.948Z,7.40
2023-04-11T20:50:13.299Z,7.40
2023-04-11T20:52:40.819Z,7.39
2023-04-11T20:55:08.247Z,7.36
2023-04-11T20:57:34.588Z,7.31
2023-04-11T21:00:03.209Z,7.28
2023-04-11T21:02:31.144Z,7.21
2023-04-11T21:04:57.644Z,7.17
2023-04-11T21:07:24.162Z,7.18
2023-04-11T21:09:50.715Z,7.20
2023-04-11T21:12:17.058Z,7.23
2023-04-11T21:14:43.615Z,7.26
2023-04-11T21:17:10.239Z,7.27
2023-04-11T21:19:36.920Z,7.23
2023-04-11T21:22:03.915Z,7.20
2023-04-11T21:24:31.194Z,7.18
2023-04-11T21:26:57.724Z,7.19
2023-04-11T21:29:24.059Z,7.20
2023-04-11T21:31:50.488Z,7.14
2023-04-11T21:34:16.879Z,7.09
2023-04-11T21:36:43.207Z,7.06
2023-04-11T21:39:09.639Z,7.00
2023-04-11T21:41:36.297Z,6.97
2023-04-11T21:44:02.631Z,6.98
2023-04-11T21:46:29.115Z,6.99
2023-04-11T21:48:55.503Z,6.95
2023-04-11T21:51:21.897Z,6.92
2023-04-11T21:53:48.290Z,6.89
2023-04-11T21:56:14.640Z,6.86
2023-04-11T21:58:40.927Z,6.85
2023-04-11T22:01:09.469Z,6.82
2023-04-11T22:03:35.849Z,6.82
2023-04-11T22:06:02.232Z,6.82
2023-04-11T22:08:28.591Z,6.82
2023-04-11T22:10:55.605Z,6.79
2023-04-11T22:13:22.198Z,6.79
2023-04-11T22:15:49.143Z,6.81
2023-04-11T22:18:15.395Z,6.83
2023-04-11T22:20:42.868Z,6.83
2023-04-11T22:23:09.679Z,6.84
2023-04-11T22:25:36.542Z,6.84
2023-04-11T22:28:02.925Z,6.85
2023-04-11T22:30:29.593Z,6.84
2023-04-11T22:32:56.111Z,6.83
2023-04-11T22:35:22.591Z,6.85
2023-04-11T22:37:48.937Z,6.86
2023-04-11T22:40:15.352Z,6.88
2023-04-11T22:42:41.819Z,6.88
2023-04-11T22:45:08.463Z,6.89
2023-04-11T22:47:34.836Z,6.89
2023-04-11T22:50:01.318Z,6.85
2023-04-11T22:52:27.637Z,6.81
2023-04-11T22:54:54.124Z,6.80
2023-04-11T22:57:20.532Z,6.78
2023-04-11T22:59:46.994Z,6.79
2023-04-11T23:02:13.355Z,6.79
2023-04-11T23:04:39.734Z,6.80
2023-04-11T23:07:06.068Z,6.79
2023-04-11T23:09:32.487Z,6.78
2023-04-11T23:11:58.839Z,6.74
2023-04-11T23:14:27.940Z,6.70
2023-04-11T23:16:54.301Z,6.68
2023-04-11T23:19:20.785Z,6.65
2023-04-11T23:21:47.313Z,6.63
2023-04-11T23:24:13.723Z,6.62
2023-04-11T23:26:40.098Z,6.63
2023-04-11T23:29:06.450Z,6.62
2023-04-11T23:31:32.970Z,6.60
2023-04-11T23:33:59.697Z,6.56
2023-04-11T23:36:26.632Z,6.55
2023-04-11T23:38:53.130Z,6.54
2023-04-11T23:41:19.466Z,6.54
2023-04-11T23:43:45.899Z,6.51
2023-04-11T23:46:13.025Z,6.51
2023-04-11T23:48:39.691Z,6.51
2023-04-11T23:51:06.174Z,6.51
2023-04-11T23:53:32.631Z,6.51
2023-04-11T23:56:02.170Z,6.49
2023-04-11T23:58:28.653Z,6.49
